createdAt,value
2022-09-15T00:01:57.779Z,78.59
2022-09-15T00:04:30.339Z,78.50
2022-09-15T00:07:03.084Z,78.59
2022-09-15T00:09:36.080Z,78.78
2022-09-15T00:12:08.675Z,78.84
2022-09-15T00:14:41.531Z,78.78
2022-09-15T00:17:15.342Z,78.60
2022-09-15T00:19:48.047Z,78.65
2022-09-15T00:22:20.647Z,78.58
2022-09-15T00:24:53.249Z,78.16
2022-09-15T00:27:25.636Z,78.76
2022-09-15T00:29:58.155Z,78.99
2022-09-15T00:32:31.990Z,78.70
2022-09-15T00:35:05.221Z,78.52
2022-09-15T00:37:37.572Z,78.45
2022-09-15T00:40:10.889Z,78.44
2022-09-15T00:42:43.270Z,78.60
2022-09-15T00:45:17.709Z,78.89
2022-09-15T00:47:52.161Z,78.85
2022-09-15T00:50:24.804Z,78.46
2022-09-15T00:53:00.754Z,78.27
2022-09-15T00:55:37.991Z,78.50
2022-09-15T00:58:12.956Z,78.57
2022-09-15T01:00:50.926Z,78.29
2022-09-15T01:03:26.531Z,78.02
2022-09-15T01:06:02.685Z,78.43
2022-09-15T01:08:40.471Z,78.41
2022-09-15T01:11:15.282Z,78.34
2022-09-15T01:13:47.632Z,78.62
2022-09-15T01:16:27.258Z,78.53
2022-09-15T01:19:11.672Z,78.51
2022-09-15T01:21:49.254Z,78.10
2022-09-15T01:24:45.822Z,77.89
2022-09-15T01:27:45.697Z,78.18
2022-09-15T01:30:20.061Z,77.68
2022-09-15T01:33:15.075Z,78.12
2022-09-15T01:35:56.409Z,78.05
2022-09-15T01:38:38.561Z,78.18
2022-09-15T01:41:16.618Z,77.81
2022-09-15T01:43:58.333Z,78.27
2022-09-15T01:46:35.801Z,78.31
2022-09-15T01:49:12.376Z,78.38
2022-09-15T01:51:46.189Z,77.93
2022-09-15T01:54:22.534Z,77.81
2022-09-15T01:56:54.919Z,77.65
2022-09-15T01:59:27.994Z,77.60
2022-09-15T02:02:06.083Z,77.82
2022-09-15T02:04:41.578Z,78.27
2022-09-15T02:07:25.041Z,78.11
2022-09-15T02:10:03.212Z,78.13
2022-09-15T02:12:43.005Z,77.95
2022-09-15T02:15:23.825Z,78.14
2022-09-15T02:17:59.325Z,78.27
2022-09-15T02:20:39.150Z,78.34
2022-09-15T02:23:17.254Z,77.64
2022-09-15T02:25:54.258Z,78.33
2022-09-15T02:28:31.320Z,78.37
2022-09-15T02:31:07.464Z,78.03
2022-09-15T02:33:45.188Z,77.62
2022-09-15T02:36:20.069Z,77.97
2022-09-15T02:38:56.588Z,78.08
2022-09-15T02:41:29.474Z,77.91
2022-09-15T02:44:02.308Z,78.03
2022-09-15T02:46:34.924Z,78.20
2022-09-15T02:49:08.633Z,78.66
2022-09-15T02:51:41.095Z,78.00
2022-09-15T02:54:13.920Z,78.10
2022-09-15T02:56:47.714Z,78.31
2022-09-15T02:59:20.166Z,78.22
2022-09-15T03:01:53.110Z,78.29
2022-09-15T03:04:26.789Z,78.47
2022-09-15T03:06:59.250Z,78.13
2022-09-15T03:09:31.653Z,78.65
2022-09-15T03:12:04.810Z,78.32
2022-09-15T03:14:37.533Z,78.58
2022-09-15T03:17:10.988Z,78.48
2022-09-15T03:19:45.537Z,78.43
2022-09-15T03:22:18.405Z,78.21
2022-09-15T03:24:51.522Z,78.24
2022-09-15T03:27:24.178Z,78.65
2022-09-15T03:29:56.476Z,78.68
2022-09-15T03:32:29.073Z,78.53
2022-09-15T03:35:03.038Z,78.61
2022-09-15T03:37:35.977Z,78.39
2022-09-15T03:40:10.852Z,78.72
2022-09-15T03:42:43.522Z,78.71
2022-09-15T03:45:16.098Z,78.50
2022-09-15T03:47:48.581Z,78.60
2022-09-15T03:50:22.267Z,78.30
2022-09-15T03:52:58.753Z,78.24
2022-09-15T03:55:31.440Z,78.13
2022-09-15T03:58:04.056Z,78.56
2022-09-15T04:00:36.613Z,78.45
2022-09-15T04:03:09.302Z,78.09
2022-09-15T04:05:42.963Z,78.46
2022-09-15T04:08:17.729Z,77.89
2022-09-15T04:10:50.093Z,78.07
2022-09-15T04:13:27.969Z,78.57
2022-09-15T04:16:01.831Z,78.22
2022-09-15T04:18:34.958Z,78.21
2022-09-15T04:21:13.214Z,78.60
2022-09-15T04:23:47.089Z,78.33
2022-09-15T04:26:22.125Z,78.08
2022-09-15T04:28:54.765Z,77.87
2022-09-15T04:31:27.244Z,78.08
2022-09-15T04:33:59.802Z,77.94
2022-09-15T04:36:33.571Z,78.03
2022-09-15T04:39:06.819Z,78.07
2022-09-15T04:41:39.191Z,78.09
2022-09-15T04:44:12.136Z,77.70
2022-09-15T04:46:44.496Z,78.14
2022-09-15T04:49:17.253Z,78.32
2022-09-15T04:51:53.317Z,77.55
2022-09-15T04:54:26.021Z,77.52
2022-09-15T04:56:58.433Z,77.62
2022-09-15T04:59:30.956Z,77.44
2022-09-15T05:02:03.615Z,77.68
2022-09-15T05:04:36.144Z,77.94
2022-09-15T05:07:09.893Z,77.64
2022-09-15T05:09:42.399Z,77.86
2022-09-15T05:12:14.747Z,77.90
2022-09-15T05:14:47.288Z,78.07
2022-09-15T05:17:20.476Z,77.67
2022-09-15T05:19:54.758Z,77.46
2022-09-15T05:22:28.696Z,77.76
2022-09-15T05:25:01.122Z,77.67
2022-09-15T05:27:34.548Z,77.54
2022-09-15T05:30:36.011Z,77.62
2022-09-15T05:33:00.896Z,77.52
2022-09-15T05:35:33.409Z,77.60
2022-09-15T05:38:07.108Z,77.08
2022-09-15T05:40:39.699Z,77.24
2022-09-15T05:43:11.981Z,77.22
2022-09-15T05:45:44.835Z,77.27
2022-09-15T05:48:17.220Z,77.65
2022-09-15T05:50:50.881Z,77.19
2022-09-15T05:53:25.326Z,76.88
2022-09-15T05:55:59.403Z,76.89
2022-09-15T05:58:33.274Z,77.07
2022-09-15T06:01:08.061Z,76.69
2022-09-15T06:03:40.823Z,76.58
2022-09-15T06:06:14.081Z,76.97
2022-09-15T06:08:51.876Z,77.22
2022-09-15T06:11:29.966Z,76.44
2022-09-15T06:14:03.819Z,76.28
2022-09-15T06:16:36.729Z,76.75
2022-09-15T06:19:09.291Z,76.61
2022-09-15T06:21:42.015Z,76.74
2022-09-15T06:24:15.866Z,76.57
2022-09-15T06:26:48.334Z,76.33
2022-09-15T06:29:20.695Z,76.35
2022-09-15T06:31:53.348Z,75.70
2022-09-15T06:34:25.804Z,76.14
2022-09-15T06:36:58.363Z,75.71
2022-09-15T06:39:32.874Z,76.21
2022-09-15T06:42:05.986Z,75.79
2022-09-15T06:44:40.265Z,75.62
2022-09-15T06:47:15.386Z,75.34
2022-09-15T06:49:47.759Z,75.79
2022-09-15T06:52:20.434Z,75.38
2022-09-15T06:54:54.182Z,75.40
2022-09-15T06:57:26.726Z,75.46
2022-09-15T06:59:59.073Z,75.26
2022-09-15T07:02:32.042Z,75.39
2022-09-15T07:05:05.046Z,75.31
2022-09-15T07:07:37.587Z,75.10
2022-09-15T07:10:11.896Z,75.15
2022-09-15T07:12:44.473Z,75.17
2022-09-15T07:15:17.068Z,75.46
2022-09-15T07:17:49.763Z,75.44
2022-09-15T07:20:22.970Z,74.79
2022-09-15T07:22:55.504Z,74.68
2022-09-15T07:25:29.724Z,74.48
2022-09-15T07:28:02.764Z,74.85
2022-09-15T07:30:35.112Z,74.83
2022-09-15T07:33:08.533Z,74.26
2022-09-15T07:35:42.536Z,74.32
2022-09-15T07:38:15.103Z,73.96
2022-09-15T07:40:49.299Z,74.24
2022-09-15T07:43:21.907Z,74.09
2022-09-15T07:46:08.545Z,73.67
2022-09-15T07:48:44.466Z,73.78
2022-09-15T07:51:17.684Z,73.01
2022-09-15T07:53:51.168Z,73.14
2022-09-15T07:56:24.916Z,73.09
2022-09-15T07:58:57.682Z,72.92
2022-09-15T08:01:30.126Z,73.05
2022-09-15T08:04:03.230Z,72.77
2022-09-15T08:06:42.549Z,73.01
2022-09-15T08:09:17.651Z,72.58
2022-09-15T08:11:51.429Z,72.64
2022-09-15T08:14:24.765Z,72.83
2022-09-15T08:16:58.207Z,72.48
2022-09-15T08:19:33.104Z,72.61
2022-09-15T08:22:05.799Z,72.46
2022-09-15T08:24:38.434Z,72.61
2022-09-15T08:27:12.177Z,72.11
2022-09-15T08:29:44.584Z,72.43
2022-09-15T08:32:16.936Z,72.36
2022-09-15T08:34:49.702Z,72.25
2022-09-15T08:37:22.154Z,72.09
2022-09-15T08:39:54.883Z,71.48
2022-09-15T08:42:30.642Z,71.28
2022-09-15T08:45:09.622Z,71.71
2022-09-15T08:47:46.858Z,71.60
2022-09-15T08:50:27.595Z,71.57
2022-09-15T08:53:03.868Z,71.28
2022-09-15T08:55:41.895Z,71.40
2022-09-15T08:58:18.452Z,71.28
2022-09-15T09:00:55.138Z,70.92
2022-09-15T09:03:54.821Z,70.78
2022-09-15T09:06:38.874Z,70.84
2022-09-15T09:09:30.099Z,70.87
2022-09-15T09:12:19.053Z,70.90
2022-09-15T09:15:16.123Z,70.75
2022-09-15T09:18:22.722Z,70.27
2022-09-15T09:21:00.856Z,70.37
2022-09-15T09:23:41.113Z,70.31
2022-09-15T09:26:14.915Z,69.81
2022-09-15T09:28:52.532Z,69.69
2022-09-15T09:31:28.590Z,69.70
2022-09-15T09:34:11.094Z,69.89
2022-09-15T09:36:43.503Z,69.94
2022-09-15T09:39:16.113Z,70.09
2022-09-15T09:41:49.120Z,69.89
2022-09-15T09:44:32.098Z,69.70
2022-09-15T09:47:06.013Z,69.63
2022-09-15T09:49:42.803Z,69.36
2022-09-15T09:52:34.056Z,69.88
2022-09-15T09:55:21.853Z,69.65
2022-09-15T09:58:10.940Z,69.96
2022-09-15T10:00:43.662Z,70.07
2022-09-15T10:03:19.932Z,70.25
2022-09-15T10:06:04.638Z,70.58
2022-09-15T10:08:40.161Z,70.30
2022-09-15T10:11:12.958Z,70.33
2022-09-15T10:13:52.682Z,70.51
2022-09-15T10:16:25.562Z,70.47
2022-09-15T10:19:00.584Z,70.38
2022-09-15T10:21:33.250Z,70.23
2022-09-15T10:24:33.694Z,70.31
2022-09-15T10:27:18.969Z,70.50
2022-09-15T10:29:51.578Z,70.72
2022-09-15T10:32:27.695Z,70.86
2022-09-15T10:35:04.966Z,70.53
2022-09-15T10:37:49.282Z,70.67
2022-09-15T10:40:33.092Z,70.60
2022-09-15T10:43:31.519Z,70.40
2022-09-15T10:46:10.119Z,70.19
2022-09-15T10:48:57.851Z,70.43
2022-09-15T10:51:46.737Z,70.47
2022-09-15T10:54:49.610Z,70.49
2022-09-15T10:57:38.709Z,70.85
2022-09-15T11:00:13.576Z,70.38
2022-09-15T11:03:06.365Z,70.29
2022-09-15T11:05:53.729Z,69.94
2022-09-15T11:08:43.507Z,69.96
2022-09-15T11:11:24.441Z,69.70
2022-09-15T11:14:11.403Z,69.58
2022-09-15T11:16:59.256Z,69.53
2022-09-15T11:19:44.626Z,69.01
2022-09-15T11:22:22.109Z,69.16
2022-09-15T11:25:01.597Z,68.98
2022-09-15T11:27:42.209Z,69.36
2022-09-15T11:30:18.853Z,69.30
2022-09-15T11:32:59.339Z,69.08
2022-09-15T11:35:45.382Z,69.14
2022-09-15T11:38:31.011Z,68.93
2022-09-15T11:41:16.135Z,69.05
2022-09-15T11:44:00.764Z,68.81
2022-09-15T11:46:48.401Z,69.12
2022-09-15T11:49:25.389Z,68.88
2022-09-15T11:52:06.642Z,69.05
2022-09-15T11:54:46.984Z,68.82
2022-09-15T11:57:25.874Z,69.01
2022-09-15T12:00:05.767Z,69.01
2022-09-15T12:02:43.964Z,69.44
2022-09-15T12:05:21.111Z,69.30
2022-09-15T12:07:58.480Z,69.42
2022-09-15T12:10:34.239Z,69.28
2022-09-15T12:13:16.395Z,69.03
2022-09-15T12:15:49.952Z,69.14
2022-09-15T12:18:38.587Z,68.99
2022-09-15T12:21:18.845Z,68.79
2022-09-15T12:23:57.248Z,68.93
2022-09-15T12:26:33.593Z,68.53
2022-09-15T12:29:33.222Z,69.01
2022-09-15T12:32:26.824Z,69.18
2022-09-15T12:35:27.128Z,68.87
2022-09-15T12:38:00.911Z,68.87
2022-09-15T12:40:36.675Z,69.20
2022-09-15T12:43:19.796Z,69.17
2022-09-15T12:45:58.711Z,69.45
2022-09-15T12:48:34.105Z,69.31
2022-09-15T12:51:12.406Z,69.39
2022-09-15T12:53:51.297Z,69.36
2022-09-15T12:56:26.278Z,69.33
2022-09-15T12:59:06.690Z,69.37
2022-09-15T13:01:50.839Z,69.48
2022-09-15T13:04:48.462Z,69.39
2022-09-15T13:07:52.763Z,69.37
2022-09-15T13:10:32.502Z,69.56
2022-09-15T13:13:28.752Z,69.59
2022-09-15T13:16:09.814Z,69.49
2022-09-15T13:18:46.357Z,69.40
2022-09-15T13:21:23.928Z,69.59
2022-09-15T13:23:57.262Z,69.61
2022-09-15T13:26:32.311Z,69.49
2022-09-15T13:29:07.492Z,70.07
2022-09-15T13:31:53.618Z,69.79
2022-09-15T13:35:05.395Z,69.95
2022-09-15T13:38:25.006Z,69.82
2022-09-15T13:41:55.177Z,69.87
2022-09-15T13:44:45.055Z,69.83
2022-09-15T13:47:32.321Z,69.88
2022-09-15T13:50:17.297Z,69.77
2022-09-15T13:53:03.150Z,69.98
2022-09-15T13:55:39.034Z,69.86
2022-09-15T14:01:09.197Z,69.72
2022-09-15T14:03:46.724Z,69.50
2022-09-15T14:06:24.794Z,69.66
2022-09-15T14:09:01.901Z,69.44
2022-09-15T14:11:37.073Z,69.94
2022-09-15T14:14:21.394Z,69.56
2022-09-15T14:16:55.458Z,69.57
2022-09-15T14:19:33.883Z,69.84
2022-09-15T14:22:26.359Z,70.16
2022-09-15T14:25:00.629Z,69.91
2022-09-15T14:27:34.354Z,70.00
2022-09-15T14:30:09.548Z,70.27
2022-09-15T14:32:46.865Z,70.36
2022-09-15T14:35:23.557Z,70.36
2022-09-15T14:37:59.144Z,70.97
2022-09-15T14:40:34.851Z,70.51
2022-09-15T14:43:26.987Z,70.54
2022-09-15T14:46:10.627Z,70.37
2022-09-15T14:48:43.128Z,70.22
2022-09-15T14:51:21.528Z,70.20
2022-09-15T14:53:58.163Z,70.49
2022-09-15T14:56:33.273Z,70.59
2022-09-15T14:59:09.374Z,70.75
2022-09-15T15:01:46.503Z,70.69
2022-09-15T15:04:25.744Z,70.81
2022-09-15T15:07:04.985Z,70.85
2022-09-15T15:09:47.245Z,71.05
2022-09-15T15:12:24.591Z,71.01
2022-09-15T15:14:57.982Z,70.93
2022-09-15T15:17:36.272Z,70.85
2022-09-15T15:20:18.918Z,71.20
2022-09-15T15:23:12.012Z,71.13
2022-09-15T15:25:47.309Z,71.16
2022-09-15T15:28:31.830Z,71.42
2022-09-15T15:31:23.819Z,71.19
2022-09-15T15:33:59.672Z,71.51
2022-09-15T15:36:34.584Z,71.79
2022-09-15T15:39:19.907Z,71.95
2022-09-15T15:42:02.795Z,71.75
2022-09-15T15:44:35.326Z,71.91
2022-09-15T15:47:25.531Z,71.91
2022-09-15T15:50:13.941Z,72.01
2022-09-15T15:52:47.868Z,71.99
2022-09-15T15:55:23.438Z,71.94
2022-09-15T15:57:57.501Z,72.41
2022-09-15T16:00:36.197Z,72.15
2022-09-15T16:03:09.304Z,72.37
2022-09-15T16:05:44.825Z,72.43
2022-09-15T16:08:24.883Z,72.58
2022-09-15T16:10:58.253Z,72.41
2022-09-15T16:13:32.229Z,72.76
2022-09-15T16:16:14.539Z,72.95
2022-09-15T16:18:48.008Z,73.11
2022-09-15T16:21:26.238Z,73.06
2022-09-15T16:23:58.780Z,73.05
2022-09-15T16:26:31.674Z,73.18
2022-09-15T16:29:06.096Z,73.70
2022-09-15T16:31:39.195Z,73.42
2022-09-15T16:34:17.968Z,73.40
2022-09-15T16:36:50.668Z,73.35
2022-09-15T16:39:23.692Z,73.34
2022-09-15T16:41:56.339Z,73.82
2022-09-15T16:44:30.624Z,73.64
2022-09-15T16:47:05.945Z,73.44
2022-09-15T16:49:39.620Z,73.88
2022-09-15T16:52:13.676Z,73.68
2022-09-15T16:54:46.369Z,73.74
2022-09-15T16:57:19.621Z,74.06
2022-09-15T16:59:53.732Z,74.35
2022-09-15T17:02:26.801Z,74.34
2022-09-15T17:04:59.428Z,74.29
2022-09-15T17:07:32.290Z,74.22
2022-09-15T17:10:06.005Z,74.61
2022-09-15T17:12:39.165Z,74.76
2022-09-15T17:15:21.326Z,74.59
2022-09-15T17:17:54.490Z,74.67
2022-09-15T17:20:28.010Z,75.32
2022-09-15T17:23:01.903Z,74.58
2022-09-15T17:25:37.519Z,75.25
2022-09-15T17:28:10.243Z,75.22
2022-09-15T17:30:44.576Z,75.20
2022-09-15T17:33:19.987Z,75.27
2022-09-15T17:35:53.875Z,75.30
2022-09-15T17:38:27.328Z,75.18
2022-09-15T17:41:00.431Z,75.49
2022-09-15T17:43:33.671Z,75.52
2022-09-15T17:46:09.194Z,75.04
2022-09-15T17:48:42.317Z,75.48
2022-09-15T17:51:19.737Z,75.06
2022-09-15T17:53:52.698Z,75.63
2022-09-15T17:56:25.647Z,75.85
2022-09-15T17:58:58.532Z,75.73
2022-09-15T18:01:33.625Z,75.70
2022-09-15T18:04:07.117Z,75.67
2022-09-15T18:06:44.753Z,75.65
2022-09-15T18:09:18.659Z,75.02
2022-09-15T18:11:51.724Z,75.48
2022-09-15T18:14:24.993Z,75.74
2022-09-15T18:16:59.336Z,75.74
2022-09-15T18:19:32.181Z,76.12
2022-09-15T18:22:05.026Z,76.05
2022-09-15T18:24:37.903Z,75.95
2022-09-15T18:27:10.943Z,75.53
2022-09-15T18:29:43.980Z,75.57
2022-09-15T18:32:18.519Z,75.80
2022-09-15T18:34:51.336Z,75.68
2022-09-15T18:37:24.089Z,75.78
2022-09-15T18:39:57.038Z,75.87
2022-09-15T18:42:31.898Z,75.40
2022-09-15T18:45:06.748Z,75.74
2022-09-15T18:47:42.741Z,75.68
2022-09-15T18:50:16.841Z,75.33
2022-09-15T18:52:50.207Z,75.56
2022-09-15T18:55:23.183Z,75.81
2022-09-15T18:58:00.744Z,76.08
2022-09-15T19:00:33.778Z,75.37
2022-09-15T19:03:09.758Z,75.67
2022-09-15T19:05:42.535Z,75.64
2022-09-15T19:08:16.074Z,76.05
2022-09-15T19:10:57.053Z,75.68
2022-09-15T19:13:30.664Z,75.69
2022-09-15T19:16:04.636Z,75.91
2022-09-15T19:18:38.746Z,76.12
2022-09-15T19:21:12.216Z,76.29
2022-09-15T19:23:45.398Z,75.71
2022-09-15T19:26:18.122Z,76.06
2022-09-15T19:28:51.421Z,76.17
2022-09-15T19:31:25.365Z,76.13
2022-09-15T19:33:59.523Z,75.99
2022-09-15T19:36:32.495Z,75.85
2022-09-15T19:39:05.321Z,76.32
2022-09-15T19:41:37.913Z,76.27
2022-09-15T19:44:10.885Z,75.76
2022-09-15T19:46:43.825Z,75.96
2022-09-15T19:49:17.707Z,76.21
2022-09-15T19:51:55.566Z,75.72
2022-09-15T19:54:30.039Z,76.16
2022-09-15T19:57:02.819Z,75.96
2022-09-15T19:59:35.428Z,75.87
2022-09-15T20:02:10.157Z,75.72
2022-09-15T20:04:44.625Z,75.68
2022-09-15T20:07:17.040Z,76.06
2022-09-15T20:09:49.599Z,75.60
2022-09-15T20:12:22.084Z,75.65
2022-09-15T20:14:54.801Z,76.08
2022-09-15T20:17:27.982Z,76.27
2022-09-15T20:20:02.679Z,76.20
2022-09-15T20:22:36.092Z,75.94
2022-09-15T20:25:09.987Z,76.43
2022-09-15T20:27:48.662Z,76.31
2022-09-15T20:30:24.026Z,75.97
2022-09-15T20:32:57.299Z,75.94
2022-09-15T20:35:34.640Z,76.02
2022-09-15T20:38:07.159Z,76.06
2022-09-15T20:40:39.816Z,76.52
2022-09-15T20:43:12.390Z,76.24
2022-09-15T20:45:54.025Z,76.12
2022-09-15T20:48:27.384Z,75.89
2022-09-15T20:51:05.939Z,76.09
2022-09-15T20:53:39.744Z,76.11
2022-09-15T20:56:13.004Z,76.42
2022-09-15T20:58:45.445Z,76.41
2022-09-15T21:01:20.339Z,76.26
2022-09-15T21:03:53.752Z,76.17
2022-09-15T21:06:28.591Z,76.65
2022-09-15T21:09:02.976Z,76.53
2022-09-15T21:11:35.662Z,76.58
2022-09-15T21:14:08.241Z,76.30
2022-09-15T21:16:40.930Z,76.89
2022-09-15T21:19:13.377Z,76.78
2022-09-15T21:21:47.258Z,76.60
2022-09-15T21:24:19.983Z,76.56
2022-09-15T21:27:11.671Z,76.96
2022-09-15T21:29:45.119Z,76.37
2022-09-15T21:32:17.632Z,76.72
2022-09-15T21:34:50.117Z,76.66
2022-09-15T21:37:26.969Z,76.75
2022-09-15T21:39:59.764Z,76.62
2022-09-15T21:42:32.177Z,77.20
2022-09-15T21:45:07.037Z,76.88
2022-09-15T21:47:39.559Z,77.25
2022-09-15T21:50:12.009Z,77.25
2022-09-15T21:52:45.944Z,76.72
2022-09-15T21:55:18.644Z,76.80
2022-09-15T21:57:51.067Z,77.09
2022-09-15T22:00:24.029Z,76.61
2022-09-15T22:02:56.388Z,76.95
2022-09-15T22:05:29.873Z,76.71
2022-09-15T22:08:05.109Z,76.85
2022-09-15T22:10:38.264Z,76.83
2022-09-15T22:13:11.764Z,77.30
2022-09-15T22:15:44.350Z,77.09
2022-09-15T22:18:16.843Z,77.07
2022-09-15T22:20:49.256Z,77.54
2022-09-15T22:23:23.076Z,77.40
2022-09-15T22:25:55.472Z,77.44
2022-09-15T22:28:27.943Z,77.46
2022-09-15T22:31:01.937Z,77.45
2022-09-15T22:33:34.991Z,76.73
2022-09-15T22:36:10.659Z,77.24
2022-09-15T22:38:44.776Z,76.89
2022-09-15T22:41:19.947Z,77.29
2022-09-15T22:43:52.353Z,77.24
2022-09-15T22:46:25.105Z,77.55
2022-09-15T22:48:58.162Z,77.53
2022-09-15T22:51:30.665Z,76.92
2022-09-15T22:54:04.705Z,76.93
2022-09-15T22:56:37.165Z,77.26
2022-09-15T22:59:09.633Z,77.42
2022-09-15T23:01:42.176Z,77.20
2022-09-15T23:04:15.148Z,77.33
2022-09-15T23:06:49.198Z,77.46
2022-09-15T23:09:23.079Z,77.73
2022-09-15T23:11:55.613Z,77.23
2022-09-15T23:14:28.122Z,77.76
2022-09-15T23:17:00.616Z,77.30
2022-09-15T23:19:33.015Z,78.14
2022-09-15T23:22:05.539Z,77.76
2022-09-15T23:24:39.338Z,78.08
2022-09-15T23:27:11.844Z,78.04
2022-09-15T23:29:44.263Z,78.10
2022-09-15T23:32:17.298Z,78.25
2022-09-15T23:34:52.773Z,78.08
2022-09-15T23:37:25.422Z,78.43
2022-09-15T23:39:59.218Z,78.64
2022-09-15T23:42:31.675Z,78.69
2022-09-15T23:45:04.664Z,78.61
2022-09-15T23:47:37.328Z,78.76
2022-09-15T23:50:10.238Z,78.61
2022-09-15T23:52:42.643Z,78.99
2022-09-15T23:55:16.654Z,78.78
2022-09-15T23:57:49.417Z,78.48
